Time;durP1;ratioP1;P1;durP2;ratioP2;P2;SDS_P1;SDS_P2;PMS_P1;PMS_P2;Temp;Humidity;BMP_temperature;BMP_pressure;BME280_temperature;BME280_humidity;BME280_pressure;Samples;Min_cycle;Max_cycle;Signal;HPM_P1;HPM_P2
2023/03/10 00:02:00;;;;;;;5.20;2.00;;;2.70;99.90;;;;;;5040904;28;20013;-76
2023/03/10 00:04:26;;;;;;;5.65;2.38;;;2.70;99.90;;;;;;5058421;28;20056;-76
2023/03/10 00:06:54;;;;;;;4.40;2.00;;;2.70;99.90;;;;;;5040132;28;20024;-75
2023/03/10 00:09:20;;;;;;;4.78;2.17;;;2.70;99.90;;;;;;5041529;28;20017;-75
2023/03/10 00:11:46;;;;;;;6.88;2.13;;;2.70;99.90;;;;;;5040626;28;20024;-75
2023/03/10 00:14:14;;;;;;;4.40;1.73;;;2.70;99.90;;;;;;5040308;28;20098;-75
2023/03/10 00:16:40;;;;;;;4.40;1.70;;;3.40;99.90;;;;;;5057888;28;20037;-75
2023/03/10 00:19:06;;;;;;;4.95;2.08;;;2.70;99.90;;;;;;5059495;28;20075;-75
2023/03/10 00:21:34;;;;;;;4.05;1.65;;;2.70;99.90;;;;;;5059579;28;20024;-75
2023/03/10 00:24:00;;;;;;;4.60;1.90;;;2.70;99.90;;;;;;5058501;28;20023;-77
2023/03/10 00:26:27;;;;;;;6.00;1.42;;;2.70;99.90;;;;;;5040328;28;20125;-75
2023/03/10 00:28:54;;;;;;;3.50;1.63;;;2.80;99.90;;;;;;5040662;28;20544;-75
2023/03/10 00:31:24;;;;;;;4.10;2.17;;;2.80;99.90;;;;;;5058431;28;20100;-75
2023/03/10 00:33:57;;;;;;;2.72;1.52;;;2.80;99.90;;;;;;5041903;28;20021;-75
2023/03/10 00:36:25;;;;;;;3.83;1.77;;;2.80;99.90;;;;;;5040633;28;20090;-76
2023/03/10 00:38:54;;;;;;;5.47;1.98;;;2.80;99.90;;;;;;5040014;28;20024;-76
2023/03/10 00:41:25;;;;;;;3.28;1.30;;;2.70;99.90;;;;;;5039623;28;20025;-76
2023/03/10 00:43:54;;;;;;;3.10;1.45;;;2.80;99.90;;;;;;5057446;28;20032;-76
2023/03/10 00:46:21;;;;;;;2.75;1.25;;;2.80;99.90;;;;;;5057873;28;20100;-76
2023/03/10 00:48:53;;;;;;;4.78;1.90;;;2.80;99.90;;;;;;5057921;28;20052;-76
2023/03/10 00:51:20;;;;;;;6.20;1.92;;;2.80;99.90;;;;;;5058231;28;20024;-76
2023/03/10 00:53:46;;;;;;;2.53;1.02;;;2.80;99.90;;;;;;5057645;28;20029;-76
2023/03/10 00:56:16;;;;;;;4.13;1.55;;;2.80;99.90;;;;;;5056681;28;20051;-76
2023/03/10 00:58:43;;;;;;;4.03;1.70;;;2.80;99.90;;;;;;5039060;28;20140;-76
2023/03/10 01:01:38;;;;;;;4.05;1.48;;;2.80;99.90;;;;;;5057760;28;20036;-76
2023/03/10 01:04:11;;;;;;;3.63;1.42;;;2.80;99.90;;;;;;5035228;28;20124;-76
2023/03/10 01:06:41;;;;;;;3.08;1.40;;;2.80;99.90;;;;;;5038904;28;20393;-76
2023/03/10 01:09:10;;;;;;;2.72;1.30;;;2.80;99.90;;;;;;5056731;28;20067;-76
2023/03/10 01:11:35;;;;;;;3.75;1.45;;;2.80;99.90;;;;;;5039273;28;20027;-76
2023/03/10 01:14:03;;;;;;;2.63;1.33;;;2.80;99.90;;;;;;5039427;28;20021;-76
2023/03/10 01:16:29;;;;;;;3.40;1.35;;;2.80;99.90;;;;;;5039184;28;20099;-76
2023/03/10 01:18:56;;;;;;;2.80;1.15;;;2.80;99.90;;;;;;5057219;28;20028;-76
2023/03/10 01:21:28;;;;;;;3.92;1.75;;;2.60;99.90;;;;;;5039717;28;20571;-76
2023/03/10 01:23:54;;;;;;;2.78;1.08;;;2.80;99.90;;;;;;5039121;28;20132;-75
2023/03/10 01:26:22;;;;;;;3.15;1.30;;;2.70;99.90;;;;;;5056699;28;20504;-76
2023/03/10 01:28:49;;;;;;;3.22;1.27;;;2.70;99.90;;;;;;5039170;28;20021;-76
2023/03/10 01:31:15;;;;;;;4.00;1.30;;;2.70;99.90;;;;;;5039258;28;20021;-76
2023/03/10 01:33:42;;;;;;;2.17;1.10;;;2.70;99.90;;;;;;5056667;28;20029;-76
2023/03/10 01:36:16;;;;;;;2.85;1.33;;;3.50;99.90;;;;;;5057330;28;20471;-76
2023/03/10 01:38:43;;;;;;;3.85;1.58;;;2.70;99.90;;;;;;5039004;28;20499;-76
2023/03/10 01:41:15;;;;;;;2.33;0.95;;;2.70;99.90;;;;;;5039196;28;20035;-76
2023/03/10 01:43:45;;;;;;;3.83;1.85;;;2.70;99.90;;;;;;5057117;28;20488;-76
2023/03/10 01:46:30;;;;;;;3.90;1.55;;;2.70;99.90;;;;;;5038729;28;20021;-76
2023/03/10 01:49:01;;;;;;;4.38;1.80;;;3.40;99.90;;;;;;5057587;28;20033;-76
2023/03/10 01:51:30;;;;;;;3.03;1.30;;;2.70;99.90;;;;;;5057047;28;20029;-76
2023/03/10 01:53:57;;;;;;;2.08;1.30;;;2.80;99.90;;;;;;5038946;28;20480;-76
2023/03/10 01:56:22;;;;;;;2.80;1.42;;;2.70;99.90;;;;;;5038204;28;20024;-76
2023/03/10 01:58:49;;;;;;;3.00;1.63;;;2.80;99.90;;;;;;5038654;28;20029;-76
2023/03/10 02:01:21;;;;;;;2.20;1.08;;;2.80;99.90;;;;;;5038866;28;20112;-75
2023/03/10 02:04:02;;;;;;;2.72;1.40;;;2.80;99.90;;;;;;5038621;28;20025;-76
2023/03/10 02:06:28;;;;;;;3.15;1.60;;;2.80;99.90;;;;;;5056760;28;20029;-76
2023/03/10 02:09:01;;;;;;;3.03;1.33;;;2.80;99.90;;;;;;5056073;28;20021;-76
2023/03/10 02:11:27;;;;;;;3.38;2.00;;;2.80;99.90;;;;;;5056748;28;20075;-76
2023/03/10 02:13:57;;;;;;;2.05;1.23;;;2.80;99.90;;;;;;5038278;28;20013;-76
2023/03/10 02:16:23;;;;;;;2.97;1.52;;;2.80;99.90;;;;;;5038400;28;20435;-76
2023/03/10 02:18:48;;;;;;;2.90;1.40;;;2.80;99.90;;;;;;5036892;28;20024;-76
2023/03/10 02:21:52;;;;;;;3.28;1.77;;;2.80;99.90;;;;;;5037889;28;20021;-76
2023/03/10 02:24:41;;;;;;;3.83;1.42;;;2.80;99.90;;;;;;5056623;28;20053;-76
2023/03/10 02:27:18;;;;;;;3.08;1.25;;;2.80;99.90;;;;;;5038358;28;20125;-76
2023/03/10 02:29:51;;;;;;;3.00;1.48;;;2.80;99.90;;;;;;5037418;28;20496;-76
2023/03/10 02:32:18;;;;;;;2.80;1.50;;;2.80;99.90;;;;;;5056370;28;20104;-76
2023/03/10 02:34:46;;;;;;;3.67;1.75;;;2.80;99.90;;;;;;5038322;28;20033;-76
2023/03/10 02:37:28;;;;;;;2.50;1.05;;;2.70;99.90;;;;;;5038229;28;20021;-76
2023/03/10 02:39:54;;;;;;;3.60;1.42;;;2.80;99.90;;;;;;5056353;28;20040;-76
2023/03/10 02:42:26;;;;;;;2.88;1.33;;;2.80;99.90;;;;;;5055214;28;20025;-76
2023/03/10 02:44:56;;;;;;;3.40;1.52;;;2.80;99.90;;;;;;5055678;28;20029;-76
2023/03/10 02:47:22;;;;;;;6.10;2.00;;;2.80;99.90;;;;;;5055533;28;20076;-76
2023/03/10 02:49:48;;;;;;;3.92;1.30;;;2.80;99.90;;;;;;5038069;28;20064;-76
2023/03/10 02:52:33;;;;;;;4.22;1.40;;;2.70;99.90;;;;;;5056332;28;20021;-76
2023/03/10 02:54:58;;;;;;;4.03;1.77;;;2.70;99.90;;;;;;5036976;28;20064;-76
2023/03/10 02:57:24;;;;;;;3.00;1.38;;;2.70;99.90;;;;;;5038025;28;20018;-76
2023/03/10 02:59:52;;;;;;;3.53;1.25;;;2.70;99.90;;;;;;5037533;28;20067;-76
2023/03/10 03:02:18;;;;;;;3.60;1.48;;;2.80;99.90;;;;;;5055991;28;20067;-75
2023/03/10 03:04:47;;;;;;;5.03;1.90;;;2.80;99.90;;;;;;5056024;28;20025;-76
2023/03/10 03:07:12;;;;;;;5.22;1.63;;;2.80;99.90;;;;;;5037981;28;20029;-76
2023/03/10 03:09:38;;;;;;;3.03;1.45;;;2.80;99.90;;;;;;5038025;28;20476;-76
2023/03/10 03:12:04;;;;;;;3.45;1.73;;;3.20;99.90;;;;;;5055449;28;20048;-76
2023/03/10 03:14:29;;;;;;;2.80;1.35;;;2.90;99.90;;;;;;5055529;28;20364;-76
2023/03/10 03:16:55;;;;;;;4.03;1.88;;;2.80;99.90;;;;;;5055515;28;20032;-76
2023/03/10 03:19:21;;;;;;;3.08;1.25;;;2.80;99.90;;;;;;5054971;28;20025;-76
2023/03/10 03:21:49;;;;;;;4.82;1.58;;;2.80;99.90;;;;;;5037368;28;20032;-76
2023/03/10 03:24:21;;;;;;;3.80;1.52;;;2.80;99.90;;;;;;5055135;28;20024;-76
2023/03/10 03:26:49;;;;;;;2.63;1.30;;;3.30;99.90;;;;;;5037185;28;20027;-76
2023/03/10 03:29:16;;;;;;;2.55;1.17;;;2.80;99.90;;;;;;5055350;28;20032;-76
2023/03/10 03:31:45;;;;;;;4.25;1.33;;;2.80;99.90;;;;;;5041817;28;20017;-76
2023/03/10 03:34:11;;;;;;;3.65;1.15;;;3.30;99.90;;;;;;5059500;28;20515;-76
2023/03/10 03:36:37;;;;;;;2.75;1.25;;;2.80;99.90;;;;;;5041144;28;20025;-76
2023/03/10 03:39:05;;;;;;;4.03;1.48;;;2.80;99.90;;;;;;5041376;28;20053;-76
2023/03/10 03:41:32;;;;;;;3.70;1.02;;;2.80;99.90;;;;;;5041806;28;20041;-76
2023/03/10 03:43:57;;;;;;;3.10;1.58;;;2.80;99.90;;;;;;5041277;28;20017;-76
2023/03/10 03:46:23;;;;;;;3.35;1.50;;;2.80;99.90;;;;;;5061216;28;20063;-76
2023/03/10 03:48:48;;;;;;;4.18;1.60;;;2.80;99.90;;;;;;5042393;28;20107;-76
2023/03/10 03:51:14;;;;;;;2.45;1.33;;;2.80;99.90;;;;;;5059131;28;20028;-76
2023/03/10 03:53:40;;;;;;;3.40;1.42;;;3.40;99.90;;;;;;5041102;28;20525;-76
2023/03/10 03:56:09;;;;;;;3.33;1.17;;;2.80;99.90;;;;;;5058752;28;20074;-76
2023/03/10 03:58:37;;;;;;;4.15;1.45;;;2.80;99.90;;;;;;5041017;28;20021;-76
2023/03/10 04:01:03;;;;;;;2.67;1.00;;;2.80;99.90;;;;;;5040563;28;20017;-76
2023/03/10 04:03:29;;;;;;;2.92;1.05;;;2.80;99.90;;;;;;5059000;28;20083;-76
2023/03/10 04:05:54;;;;;;;3.15;1.23;;;2.80;99.90;;;;;;5058324;28;20029;-76
2023/03/10 04:08:21;;;;;;;1.95;0.80;;;;;;;;;;5041328;28;20120;-76
2023/03/10 04:10:54;;;;;;;4.50;1.48;;;2.70;99.90;;;;;;5058676;28;20040;-76
2023/03/10 04:13:20;;;;;;;2.22;0.90;;;2.70;99.90;;;;;;5040370;28;20024;-76
2023/03/10 04:15:52;;;;;;;3.80;1.15;;;2.70;99.90;;;;;;5057896;28;20037;-76
2023/03/10 04:18:18;;;;;;;2.58;1.10;;;2.60;99.90;;;;;;5040063;28;20029;-76
2023/03/10 04:20:43;;;;;;;2.05;0.98;;;2.70;99.90;;;;;;5059452;28;20028;-76
2023/03/10 04:23:09;;;;;;;1.98;0.65;;;2.60;99.90;;;;;;5058206;28;20488;-76
2023/03/10 04:25:35;;;;;;;2.20;0.93;;;2.70;99.90;;;;;;5040308;28;20025;-76
2023/03/10 04:28:00;;;;;;;2.40;1.05;;;2.70;99.90;;;;;;5040197;28;20537;-76
2023/03/10 04:30:28;;;;;;;2.95;1.13;;;2.60;99.90;;;;;;5039753;28;20025;-75
2023/03/10 04:33:00;;;;;;;4.40;1.35;;;2.70;99.90;;;;;;5040056;28;20087;-76
2023/03/10 04:35:26;;;;;;;2.55;0.85;;;2.70;99.90;;;;;;5040414;28;20037;-76
2023/03/10 04:37:57;;;;;;;2.15;0.82;;;2.60;99.90;;;;;;5057537;28;20021;-75
2023/03/10 04:40:23;;;;;;;2.75;0.70;;;2.60;99.90;;;;;;5040681;28;20033;-76
2023/03/10 04:42:51;;;;;;;2.63;0.65;;;2.60;99.90;;;;;;5038611;28;20017;-76
2023/03/10 04:45:17;;;;;;;2.97;1.15;;;2.60;99.90;;;;;;5057561;28;20059;-76
2023/03/10 04:47:43;;;;;;;2.72;1.00;;;2.60;99.90;;;;;;5058064;28;20104;-76
2023/03/10 04:50:10;;;;;;;3.20;0.93;;;2.60;99.90;;;;;;5039646;28;20013;-76
2023/03/10 04:52:35;;;;;;;3.25;1.30;;;2.60;99.90;;;;;;5039926;28;20025;-76
2023/03/10 04:55:01;;;;;;;4.43;1.35;;;3.60;99.90;;;;;;5057151;28;20079;-75
2023/03/10 04:57:27;;;;;;;3.13;1.00;;;2.60;99.90;;;;;;5039354;28;20021;-76
2023/03/10 05:00:01;;;;;;;3.42;1.40;;;2.60;99.90;;;;;;5057041;28;20025;-76
2023/03/10 05:02:30;;;;;;;3.47;1.20;;;2.60;99.90;;;;;;5058811;28;20383;-76
2023/03/10 05:04:55;;;;;;;3.47;1.45;;;2.60;99.90;;;;;;5039349;28;20056;-76
2023/03/10 05:07:21;;;;;;;4.35;1.63;;;2.50;99.90;;;;;;5057913;28;20025;-76
2023/03/10 05:09:49;;;;;;;5.10;1.33;;;2.50;99.90;;;;;;5039661;28;20009;-76
2023/03/10 05:12:15;;;;;;;5.72;2.08;;;2.50;99.90;;;;;;5039530;28;20017;-76
2023/03/10 05:14:41;;;;;;;4.15;1.58;;;2.70;99.90;;;;;;5039513;28;20167;-76
2023/03/10 05:17:06;;;;;;;4.80;1.77;;;2.50;99.90;;;;;;5056973;28;20468;-76
2023/03/10 05:19:33;;;;;;;4.55;1.65;;;2.60;99.90;;;;;;5057176;28;20095;-76
2023/03/10 05:21:59;;;;;;;3.22;1.08;;;2.60;99.90;;;;;;5056858;28;20051;-76
2023/03/10 05:24:25;;;;;;;5.88;1.75;;;2.50;99.90;;;;;;5039187;28;20104;-76
2023/03/10 05:26:50;;;;;;;4.68;1.63;;;2.50;99.90;;;;;;5057376;28;20021;-76
2023/03/10 05:29:16;;;;;;;6.03;1.55;;;2.50;99.90;;;;;;5056380;28;20081;-76
2023/03/10 05:31:42;;;;;;;3.58;1.05;;;2.50;99.90;;;;;;5038705;28;20078;-76
2023/03/10 05:34:10;;;;;;;2.80;0.85;;;2.50;99.90;;;;;;5056183;28;20091;-76
2023/03/10 05:36:39;;;;;;;5.05;1.85;;;2.50;99.90;;;;;;5038702;28;20143;-76
2023/03/10 05:39:05;;;;;;;3.95;1.60;;;2.50;99.90;;;;;;5038597;28;20017;-76
2023/03/10 05:41:32;;;;;;;5.70;2.00;;;2.50;99.90;;;;;;5039227;28;20029;-76
2023/03/10 05:43:58;;;;;;;5.32;1.83;;;2.50;99.90;;;;;;5038739;28;20484;-76
2023/03/10 05:46:27;;;;;;;4.63;1.85;;;2.50;99.90;;;;;;5038297;28;20048;-76
2023/03/10 05:48:53;;;;;;;4.95;1.23;;;2.50;99.90;;;;;;5038613;28;20373;-76
2023/03/10 05:51:18;;;;;;;4.50;1.73;;;2.50;99.90;;;;;;5056173;28;20092;-76
2023/03/10 05:53:44;;;;;;;4.60;1.75;;;2.50;99.90;;;;;;5038362;28;20024;-76
2023/03/10 05:56:16;;;;;;;4.78;1.50;;;4.00;99.90;;;;;;5038852;28;20054;-76
2023/03/10 05:58:43;;;;;;;3.70;1.17;;;2.50;99.90;;;;;;5037532;28;20033;-76
2023/03/10 06:01:09;;;;;;;6.78;1.50;;;2.40;99.90;;;;;;5039479;28;20029;-75
2023/03/10 06:03:36;;;;;;;5.45;1.75;;;5.30;99.90;;;;;;5038493;28;20021;-75
2023/03/10 06:06:05;;;;;;;4.50;1.60;;;2.50;99.90;;;;;;5056186;28;20040;-75
2023/03/10 06:08:32;;;;;;;5.30;2.00;;;2.50;99.90;;;;;;5039819;28;20487;-76
2023/03/10 06:11:01;;;;;;;5.97;1.88;;;2.50;99.90;;;;;;5038111;28;20048;-76
2023/03/10 06:13:27;;;;;;;4.43;1.58;;;2.50;99.90;;;;;;5038430;28;20029;-76
2023/03/10 06:16:01;;;;;;;6.45;1.58;;;2.50;99.90;;;;;;5056647;28;20027;-76
2023/03/10 06:18:27;;;;;;;5.20;1.42;;;2.50;99.90;;;;;;5056621;28;20502;-76
2023/03/10 06:20:53;;;;;;;3.72;1.45;;;2.50;99.90;;;;;;5038526;28;20021;-76
2023/03/10 06:23:20;;;;;;;5.75;1.98;;;2.50;99.90;;;;;;5038504;28;20017;-77
2023/03/10 06:25:58;;;;;;;4.93;1.58;;;2.60;99.90;;;;;;5037569;28;20041;-77
2023/03/10 06:28:24;;;;;;;6.40;2.40;;;2.50;99.90;;;;;;5038017;28;20017;-76
2023/03/10 06:31:06;;;;;;;3.97;1.10;;;2.60;99.90;;;;;;5038430;28;20060;-76
2023/03/10 06:33:35;;;;;;;3.88;1.23;;;2.50;99.90;;;;;;5038292;28;20025;-76
2023/03/10 06:36:01;;;;;;;5.20;1.55;;;2.50;99.90;;;;;;5056508;28;20017;-76
2023/03/10 06:38:27;;;;;;;6.72;1.98;;;2.50;99.90;;;;;;5038487;28;20508;-76
2023/03/10 06:40:53;;;;;;;5.28;1.45;;;2.50;99.90;;;;;;5037738;28;20063;-76
2023/03/10 06:43:22;;;;;;;4.43;1.58;;;2.50;99.90;;;;;;5056085;28;20484;-76
2023/03/10 06:45:48;;;;;;;;;;;2.50;99.90;;;;;;5038505;28;20104;-77
2023/03/10 06:48:14;;;;;;;4.75;0.82;;;;;;;;;;5056516;28;20406;-77
2023/03/10 06:50:41;;;;;;;3.03;1.00;;;2.50;99.90;;;;;;5038113;28;20465;-76
2023/03/10 06:53:08;;;;;;;4.05;1.27;;;2.50;99.90;;;;;;5038012;28;20025;-76
2023/03/10 06:55:36;;;;;;;3.83;1.05;;;2.50;99.90;;;;;;5038265;28;20120;-75
2023/03/10 06:58:02;;;;;;;5.47;1.05;;;2.60;99.90;;;;;;5037856;28;20061;-76
2023/03/10 07:00:28;;;;;;;3.67;1.05;;;2.50;99.90;;;;;;5056329;28;20029;-75
2023/03/10 07:02:54;;;;;;;2.42;0.63;;;4.80;99.90;;;;;;5037694;28;20388;-76
2023/03/10 07:05:21;;;;;;;2.58;0.63;;;2.60;99.90;;;;;;5039686;28;20476;-76
2023/03/10 07:07:49;;;;;;;5.07;0.77;;;2.60;99.90;;;;;;5042092;28;20044;-76
2023/03/10 07:10:16;;;;;;;6.80;0.80;;;2.60;99.90;;;;;;5041886;28;20032;-76
2023/03/10 07:12:42;;;;;;;2.10;0.70;;;2.60;99.90;;;;;;5060027;28;20498;-76
2023/03/10 07:15:17;;;;;;;2.47;0.68;;;2.60;99.90;;;;;;5059955;28;20021;-76
2023/03/10 07:17:43;;;;;;;3.25;0.73;;;;;;;;;;5042100;28;20506;-75
2023/03/10 07:20:09;;;;;;;2.92;0.75;;;2.70;99.90;;;;;;5042209;28;20119;-76
2023/03/10 07:22:35;;;;;;;2.63;0.65;;;2.70;99.90;;;;;;5060334;28;20100;-76
2023/03/10 07:25:01;;;;;;;4.03;1.48;;;2.70;99.90;;;;;;5059751;28;20065;-77
2023/03/10 07:27:26;;;;;;;2.08;0.70;;;2.70;99.90;;;;;;5041892;28;20009;-76
2023/03/10 07:29:52;;;;;;;3.55;0.52;;;2.70;99.90;;;;;;5041272;28;20095;-76
2023/03/10 07:32:18;;;;;;;1.55;0.40;;;2.80;99.90;;;;;;5059342;28;20025;-76
2023/03/10 07:34:43;;;;;;;1.90;0.50;;;2.70;99.90;;;;;;5042221;28;20082;-76
2023/03/10 07:37:12;;;;;;;2.53;0.93;;;2.80;99.90;;;;;;5041462;28;20029;-76
2023/03/10 07:39:37;;;;;;;2.00;0.40;;;2.80;99.90;;;;;;5041270;28;20025;-76
2023/03/10 07:42:03;;;;;;;1.48;0.70;;;2.80;99.90;;;;;;5040864;28;20372;-76
2023/03/10 07:44:29;;;;;;;4.00;0.65;;;2.80;99.90;;;;;;5059321;28;20076;-77
2023/03/10 07:46:54;;;;;;;1.75;0.50;;;2.80;99.90;;;;;;5058946;28;20033;-76
2023/03/10 07:49:20;;;;;;;2.15;0.20;;;2.80;99.90;;;;;;5040743;28;20025;-76
2023/03/10 07:51:46;;;;;;;1.38;0.22;;;2.80;99.90;;;;;;5041090;28;20028;-76
2023/03/10 07:54:12;;;;;;;2.10;0.20;;;2.80;99.90;;;;;;5058960;28;20103;-76
2023/03/10 07:56:38;;;;;;;1.63;0.25;;;2.80;99.90;;;;;;5040642;28;20456;-76
2023/03/10 07:59:03;;;;;;;2.17;0.35;;;5.70;99.90;;;;;;5059015;28;20028;-76
2023/03/10 08:01:29;;;;;;;1.20;0.32;;;2.90;99.90;;;;;;5058789;28;20223;-77
2023/03/10 08:03:55;;;;;;;0.90;0.25;;;2.90;99.90;;;;;;5041046;28;20025;-76
2023/03/10 08:06:24;;;;;;;1.10;0.20;;;2.90;99.90;;;;;;5040798;28;20020;-77
2023/03/10 08:08:51;;;;;;;1.80;0.47;;;2.90;99.90;;;;;;5041090;28;20025;-76
2023/03/10 08:11:17;;;;;;;1.33;0.30;;;2.90;99.90;;;;;;5040805;28;20033;-76
2023/03/10 08:13:46;;;;;;;0.60;0.20;;;2.90;99.90;;;;;;5040207;28;20021;-76
2023/03/10 08:16:16;;;;;;;1.02;0.30;;;3.00;99.90;;;;;;5058123;28;20049;-76
2023/03/10 08:18:45;;;;;;;0.85;0.20;;;3.00;99.90;;;;;;5040144;28;20170;-76
2023/03/10 08:21:11;;;;;;;1.33;0.30;;;3.00;99.90;;;;;;5058844;28;20025;-75
2023/03/10 08:23:37;;;;;;;0.73;0.13;;;3.00;99.90;;;;;;5058791;28;20503;-76
2023/03/10 08:26:09;;;;;;;0.52;0.10;;;3.00;99.90;;;;;;5058186;28;20484;-76
2023/03/10 08:28:39;;;;;;;1.20;0.20;;;3.10;99.90;;;;;;5040325;28;20021;-76
2023/03/10 08:31:10;;;;;;;0.98;0.50;;;3.10;99.90;;;;;;5058548;28;20017;-76
2023/03/10 08:33:39;;;;;;;2.80;0.10;;;3.10;99.90;;;;;;5040075;28;20120;-76
2023/03/10 08:36:11;;;;;;;0.95;0.32;;;3.10;99.90;;;;;;5039534;28;20052;-76
2023/03/10 08:38:37;;;;;;;0.98;0.40;;;3.20;99.90;;;;;;5040078;28;20153;-76
2023/03/10 08:41:12;;;;;;;1.23;0.32;;;4.00;99.90;;;;;;5040304;28;20036;-76
2023/03/10 08:43:38;;;;;;;0.52;0.22;;;3.20;99.90;;;;;;5058530;28;20025;-76
2023/03/10 08:46:05;;;;;;;1.65;0.22;;;3.20;99.90;;;;;;5039909;28;20017;-76
2023/03/10 08:48:33;;;;;;;1.10;0.43;;;3.20;99.90;;;;;;5040226;28;20020;-76
2023/03/10 08:50:59;;;;;;;1.27;0.17;;;3.20;99.90;;;;;;5058865;28;20022;-76
2023/03/10 08:53:24;;;;;;;1.08;0.13;;;3.20;99.90;;;;;;5039679;28;20270;-76
2023/03/10 08:55:50;;;;;;;2.28;0.63;;;3.20;99.90;;;;;;5058411;28;20031;-76
2023/03/10 08:58:15;;;;;;;1.15;0.30;;;3.30;99.90;;;;;;5057774;28;20496;-76
2023/03/10 09:00:42;;;;;;;1.50;0.47;;;3.20;99.90;;;;;;5039774;28;20032;-76
2023/03/10 09:03:11;;;;;;;1.13;0.20;;;3.20;99.90;;;;;;5040095;28;20401;-76
2023/03/10 09:05:37;;;;;;;0.50;0.10;;;3.30;99.90;;;;;;5039213;28;20502;-76
2023/03/10 09:08:03;;;;;;;0.82;0.20;;;3.30;99.90;;;;;;5039850;28;20017;-76
2023/03/10 09:10:29;;;;;;;0.77;0.20;;;3.30;99.90;;;;;;5039632;28;20505;-76
2023/03/10 09:12:55;;;;;;;1.52;0.40;;;3.30;99.90;;;;;;5039052;28;20021;-76
2023/03/10 09:15:21;;;;;;;1.35;0.22;;;3.10;99.90;;;;;;5039478;28;20535;-76
2023/03/10 09:17:47;;;;;;;1.25;0.30;;;3.20;99.90;;;;;;5039287;28;20029;-76
2023/03/10 09:20:16;;;;;;;0.80;0.10;;;3.20;99.90;;;;;;5057645;28;20025;-76
2023/03/10 09:22:47;;;;;;;0.95;0.17;;;3.20;99.90;;;;;;5039419;28;20052;-76
2023/03/10 09:25:16;;;;;;;1.38;0.20;;;3.10;99.90;;;;;;5057003;28;20098;-76
2023/03/10 09:27:42;;;;;;;1.00;0.20;;;3.10;99.90;;;;;;5038774;28;20021;-76
2023/03/10 09:30:09;;;;;;;0.63;0.20;;;3.10;99.90;;;;;;5057746;28;20114;-76
2023/03/10 09:32:37;;;;;;;0.93;0.25;;;3.10;99.90;;;;;;5057239;28;20054;-76
2023/03/10 09:35:04;;;;;;;0.50;0.13;;;3.10;99.90;;;;;;5040397;28;20040;-76
2023/03/10 09:37:29;;;;;;;0.95;0.10;;;3.10;99.90;;;;;;5039281;28;20383;-77
2023/03/10 09:39:58;;;;;;;0.93;0.10;;;3.10;99.90;;;;;;5039325;28;20112;-76
2023/03/10 09:42:35;;;;;;;1.27;0.20;;;3.00;99.90;;;;;;5057426;28;20032;-76
2023/03/10 09:45:13;;;;;;;1.13;0.10;;;3.00;99.90;;;;;;5039079;28;20029;-76
2023/03/10 09:48:19;;;;;;;2.70;0.30;;;3.40;99.90;;;;;;5040506;28;20490;-76
2023/03/10 09:50:53;;;;;;;1.17;0.30;;;3.00;99.90;;;;;;5039245;28;20017;-76
2023/03/10 09:53:53;;;;;;;0.60;0.13;;;3.00;99.90;;;;;;5039195;28;20097;-76
2023/03/10 09:56:24;;;;;;;0.55;0.08;;;3.00;99.90;;;;;;5057696;28;20533;-76
2023/03/10 09:58:57;;;;;;;2.47;0.10;;;3.00;99.90;;;;;;5039572;28;20092;-76
2023/03/10 10:01:27;;;;;;;0.82;0.10;;;3.00;99.90;;;;;;5057686;28;20032;-76
2023/03/10 10:04:16;;;;;;;0.50;0.20;;;2.90;99.90;;;;;;5057102;28;20036;-77
2023/03/10 10:06:45;;;;;;;0.85;0.28;;;2.50;99.90;;;;;;5038451;28;20024;-76
2023/03/10 10:09:40;;;;;;;1.00;0.10;;;3.00;99.90;;;;;;5056441;28;20021;-76
2023/03/10 10:12:22;;;;;;;0.95;0.10;;;2.90;99.90;;;;;;5039218;28;20534;-76
2023/03/10 10:15:00;;;;;;;0.40;0.20;;;3.00;99.90;;;;;;5038519;28;20541;-76
2023/03/10 10:18:09;;;;;;;0.50;0.10;;;3.00;99.90;;;;;;5056778;28;20025;-76
2023/03/10 10:21:00;;;;;;;1.10;0.05;;;3.00;99.90;;;;;;5039394;28;20021;-76
2023/03/10 10:23:38;;;;;;;0.80;0.00;;;3.00;99.90;;;;;;5038411;28;20021;-76
2023/03/10 10:26:16;;;;;;;1.30;0.30;;;3.00;99.90;;;;;;5037973;28;20033;-76
2023/03/10 10:29:03;;;;;;;0.20;0.00;;;3.10;99.90;;;;;;5038585;28;20013;-76
2023/03/10 10:31:31;;;;;;;1.00;0.10;;;3.10;99.90;;;;;;5038428;28;20017;-76
2023/03/10 10:34:06;;;;;;;0.28;0.00;;;3.20;99.90;;;;;;5056312;28;20433;-76
2023/03/10 10:36:51;;;;;;;0.88;0.00;;;3.20;99.90;;;;;;5056267;28;20464;-75
2023/03/10 10:39:31;;;;;;;0.28;0.00;;;3.20;99.90;;;;;;5038304;28;20025;-75
2023/03/10 10:42:23;;;;;;;0.63;0.10;;;3.20;99.90;;;;;;5038025;28;20037;-74
2023/03/10 10:45:02;;;;;;;0.50;0.10;;;3.20;99.90;;;;;;5038623;28;20079;-75
2023/03/10 10:47:34;;;;;;;1.15;0.10;;;3.20;99.90;;;;;;5038794;28;20056;-75
2023/03/10 10:50:23;;;;;;;0.30;0.00;;;3.20;99.90;;;;;;5038193;28;20032;-75
2023/03/10 10:52:52;;;;;;;0.20;0.00;;;3.20;99.90;;;;;;5038115;28;20021;-75
2023/03/10 10:55:33;;;;;;;;;;;3.20;99.90;;;;;;5038189;28;20116;-75
2023/03/10 10:58:09;;;;;;;0.52;0.10;;;3.20;99.90;;;;;;5055755;28;19905;-75
2023/03/10 11:00:37;;;;;;;0.20;0.00;;;3.20;99.90;;;;;;5056054;28;20128;-75
2023/03/10 11:03:26;;;;;;;0.32;0.00;;;3.20;99.90;;;;;;5037942;28;20028;-75
2023/03/10 11:05:52;;;;;;;0.65;0.00;;;3.20;99.90;;;;;;5037376;28;20036;-75
2023/03/10 11:08:25;;;;;;;0.77;0.00;;;3.30;99.90;;;;;;5038063;28;20029;-75
2023/03/10 11:11:07;;;;;;;0.50;0.00;;;3.20;99.90;;;;;;5056037;28;20495;-75
2023/03/10 11:13:54;;;;;;;0.20;0.00;;;3.20;99.90;;;;;;5055663;28;20484;-75
2023/03/10 11:17:01;;;;;;;0.43;0.10;;;3.20;99.90;;;;;;5037141;28;20036;-75
2023/03/10 11:19:44;;;;;;;0.50;0.00;;;3.20;99.90;;;;;;5038016;28;20054;-75
2023/03/10 11:22:39;;;;;;;1.23;0.00;;;3.20;99.90;;;;;;5037616;28;20067;-75
2023/03/10 11:25:27;;;;;;;0.70;0.10;;;3.10;99.90;;;;;;5011319;28;20079;-75
2023/03/10 11:28:13;;;;;;;0.50;0.00;;;3.10;99.90;;;;;;5037997;28;20075;-76
2023/03/10 11:30:53;;;;;;;0.43;0.00;;;3.10;99.90;;;;;;5037060;28;20271;-76
2023/03/10 11:33:49;;;;;;;1.48;0.17;;;3.10;99.90;;;;;;5055189;28;20017;-75
2023/03/10 11:36:43;;;;;;;0.82;0.13;;;3.10;99.90;;;;;;5038085;28;20033;-76
2023/03/10 11:39:21;;;;;;;2.67;0.32;;;3.10;99.90;;;;;;5036750;28;20033;-76
2023/03/10 11:41:52;;;;;;;2.13;0.20;;;3.20;99.90;;;;;;5055828;28;20036;-76
2023/03/10 11:44:29;;;;;;;1.08;0.30;;;3.20;99.90;;;;;;5037673;28;20028;-76
2023/03/10 11:47:18;;;;;;;3.63;0.10;;;3.20;99.90;;;;;;5037490;28;20044;-76
2023/03/10 11:49:52;;;;;;;1.77;0.38;;;3.20;99.90;;;;;;5055370;28;20028;-76
2023/03/10 11:52:22;;;;;;;1.52;0.20;;;3.30;99.90;;;;;;5041464;28;20021;-76
2023/03/10 11:54:53;;;;;;;1.90;0.30;;;3.30;99.90;;;;;;5059895;28;20035;-76
2023/03/10 11:57:24;;;;;;;1.42;0.20;;;3.30;99.90;;;;;;5058922;28;20067;-76
2023/03/10 11:59:54;;;;;;;1.27;0.10;;;3.30;99.90;;;;;;5040900;28;20025;-76
2023/03/10 12:02:26;;;;;;;1.30;0.30;;;3.40;99.90;;;;;;5041324;28;20045;-76
2023/03/10 12:05:22;;;;;;;0.50;0.10;;;3.40;99.90;;;;;;5040828;28;20127;-76
2023/03/10 12:07:52;;;;;;;0.73;0.25;;;3.40;99.90;;;;;;5028324;28;20028;-76
2023/03/10 12:10:22;;;;;;;0.77;0.10;;;3.40;99.90;;;;;;5041390;28;20048;-76
2023/03/10 12:12:50;;;;;;;0.98;0.20;;;3.40;99.90;;;;;;5059036;28;20490;-75
2023/03/10 12:15:23;;;;;;;2.30;0.55;;;3.40;99.90;;;;;;5040195;28;20439;-76
2023/03/10 12:17:50;;;;;;;2.00;0.47;;;3.40;99.90;;;;;;5041237;28;20031;-76
2023/03/10 12:20:16;;;;;;;1.23;0.35;;;3.40;99.90;;;;;;5041357;28;20029;-76
2023/03/10 12:22:42;;;;;;;2.25;0.20;;;3.50;99.90;;;;;;5058422;28;20025;-76
2023/03/10 12:25:36;;;;;;;1.63;0.45;;;3.40;99.90;;;;;;5057876;28;20025;-76
2023/03/10 12:28:23;;;;;;;0.85;0.10;;;3.40;99.90;;;;;;5038931;28;20033;-76
2023/03/10 12:31:33;;;;;;;2.35;0.75;;;3.40;99.90;;;;;;5059433;28;20045;-76
2023/03/10 12:34:21;;;;;;;1.13;0.35;;;3.50;99.90;;;;;;5040913;28;20037;-76
2023/03/10 12:36:50;;;;;;;1.47;0.33;;;3.40;99.90;;;;;;5040792;28;20055;-76
2023/03/10 12:39:30;;;;;;;1.45;0.40;;;3.40;99.90;;;;;;5040474;28;20459;-76
2023/03/10 12:42:00;;;;;;;2.30;0.57;;;3.40;99.90;;;;;;5058031;28;20102;-76
2023/03/10 12:44:45;;;;;;;1.50;0.35;;;3.40;99.90;;;;;;5039918;28;20429;-76
2023/03/10 12:47:16;;;;;;;2.13;0.40;;;3.50;99.90;;;;;;5040335;28;20021;-75
2023/03/10 12:50:15;;;;;;;1.85;0.43;;;3.40;99.90;;;;;;5040719;28;20059;-76
2023/03/10 12:52:43;;;;;;;2.47;0.63;;;3.50;99.90;;;;;;5034671;28;20041;-75
2023/03/10 12:55:23;;;;;;;1.73;0.43;;;3.40;99.90;;;;;;5040066;28;20021;-75
2023/03/10 12:57:52;;;;;;;1.92;0.65;;;3.40;99.90;;;;;;5039808;28;20472;-75
2023/03/10 13:00:53;;;;;;;1.73;0.45;;;3.30;99.90;;;;;;5041452;28;20017;-76
2023/03/10 13:03:48;;;;;;;1.05;0.40;;;3.30;99.90;;;;;;5038430;28;20441;-75
2023/03/10 13:06:13;;;;;;;1.17;0.25;;;3.80;99.90;;;;;;5040287;28;20029;-76
2023/03/10 13:08:44;;;;;;;2.92;0.82;;;3.30;99.90;;;;;;5039593;28;20460;-75
2023/03/10 13:11:33;;;;;;;2.97;0.80;;;3.20;99.90;;;;;;5040351;28;20057;-75
2023/03/10 13:14:17;;;;;;;1.75;0.55;;;3.10;99.90;;;;;;5040221;28;20017;-75
2023/03/10 13:16:59;;;;;;;2.85;0.38;;;3.00;99.90;;;;;;5040241;28;20025;-75
2023/03/10 13:19:27;;;;;;;1.83;0.28;;;2.90;99.90;;;;;;5041102;28;20025;-76